Cumberland, OH (43732)

10:25 PM EDT on August 28, 2014 (GMT -0400)
Downtown Cambridge | Change Station
CLOSE
Current Station
Personal Weather Station
Location: Cambridge, OH
Elevation: 876 ft
Nearby Weather Stations

Elev 876 ft 40.03 °N, 81.59 °W | Updated 2 seconds ago

Clear
Clear
63.0 °F
Feels Like 63.0 °F
N
0.0
Wind Variable Wind from NNE
Gusts 0.0 mph

Today
High -- | Low -- °F
--% Chance of Precip.
Yesterday
High -- | Low -- °F
Precip. -- in
6:50 AM 8:04 PM
Waxing Crescent, 11% visible
Pressure 30.12 in
Visibility 10.0 miles
Clouds Clear
Dew Point 60 °F
Humidity 89%
Rainfall 0.00 in
Snow Depth Not available.
UV 0 out of 12
Pollen 10.30 out of 12
Air Quality Not available.
Flu Activity Not available.
METAR KZZV 290153Z AUTO 00000KT 10SM CLR 17/14 A3013 RMK AO2 SLP200 T01720139

More Conditions Fewer Conditions

Pressure 30.12 in
Visibility 10.0 miles
Clouds Clear
Dew Point 60 °F
Humidity 89%
Rainfall 0.00 in
Snow Depth Not available.
UV 0 out of 12
Pollen 10.30 out of 12
Air Quality Not available.
Flu Activity Not available.
METAR KZZV 290153Z AUTO 00000KT 10SM CLR 17/14 A3013 RMK AO2 SLP200 T01720139

More Conditions Fewer Conditions

10-Day Weather Forecast

Almanac

Astronomy

Aug. 28, 2014 Rise Set
Actual Time 6:50 AM EDT 8:04 PM EDT
Civil Twilight 6:22 AM EDT 8:32 PM EDT
Nautical Twilight 5:49 AM EDT 9:05 PM EDT
Astronomical Twilight 5:14 AM EDT 9:40 PM EDT
Moon 9:41 AM EDT (8/28) 9:27 PM EDT (8/28)
Length of Visible Light 14h 09m
Length of Day
13h 13m
Tomorrow will be 2m 30s shorter.
Waxing Crescent, 11% of the Moon is Illuminated
Today
Waxing Crescent
Sep 2
First Quarter
Sep 8
Full
Sep 15
Last Quarter
Sep 24
New

Today's Extremes

State Highs State Lows

Community

WunderPhotos

Upload Photos

1,748,124 photos uploaded!

Nearby

Snow Depth

Station Depth Elevation
No new snow has been reported.

Earthquake Activity

City Distance Mag. Time & Date
No recent earthquake activity has been reported nearby.
Minimum magnitude displayed is 2.5.

Coastal Water Temperatures

Place Temperature
No Stations Reporting

Nearby Weather Stations